sensor_id;sensor_type;location;lat;lon;timestamp;temperature;humidity
12452;DHT22;6291;48.924;12.204;2022-09-09T00:03:54;14.90;99.90
12452;DHT22;6291;48.924;12.204;2022-09-09T00:09:02;14.90;99.90
12452;DHT22;6291;48.924;12.204;2022-09-09T00:14:16;14.80;99.90
12452;DHT22;6291;48.924;12.204;2022-09-09T00:19:23;14.80;99.90
12452;DHT22;6291;48.924;12.204;2022-09-09T00:24:37;15.00;99.90
12452;DHT22;6291;48.924;12.204;2022-09-09T00:29:46;14.90;99.90
12452;DHT22;6291;48.924;12.204;2022-09-09T00:34:53;14.60;99.90
12452;DHT22;6291;48.924;12.204;2022-09-09T00:39:59;15.00;99.90
12452;DHT22;6291;48.924;12.204;2022-09-09T00:45:19;14.50;99.90
12452;DHT22;6291;48.924;12.204;2022-09-09T00:50:38;14.30;99.90
12452;DHT22;6291;48.924;12.204;2022-09-09T00:55:49;14.30;99.90
12452;DHT22;6291;48.924;12.204;2022-09-09T01:01:03;14.40;99.90
12452;DHT22;6291;48.924;12.204;2022-09-09T01:06:16;14.50;99.90
12452;DHT22;6291;48.924;12.204;2022-09-09T01:11:22;18.50;99.90
12452;DHT22;6291;48.924;12.204;2022-09-09T01:16:33;14.10;99.90
12452;DHT22;6291;48.924;12.204;2022-09-09T01:21:43;14.10;99.90
12452;DHT22;6291;48.924;12.204;2022-09-09T01:26:56;14.10;99.90
12452;DHT22;6291;48.924;12.204;2022-09-09T01:32:35;14.00;99.90
12452;DHT22;6291;48.924;12.204;2022-09-09T01:37:26;13.80;99.90
12452;DHT22;6291;48.924;12.204;2022-09-09T01:42:31;13.90;99.90
12452;DHT22;6291;48.924;12.204;2022-09-09T01:47:35;14.00;99.90
12452;DHT22;6291;48.924;12.204;2022-09-09T01:52:54;14.00;99.90
12452;DHT22;6291;48.924;12.204;2022-09-09T01:58:23;13.80;99.90
12452;DHT22;6291;48.924;12.204;2022-09-09T02:03:32;13.80;99.90
12452;DHT22;6291;48.924;12.204;2022-09-09T02:08:56;13.90;99.90
12452;DHT22;6291;48.924;12.204;2022-09-09T02:14:06;13.20;99.90
12452;DHT22;6291;48.924;12.204;2022-09-09T02:19:19;13.80;99.90
12452;DHT22;6291;48.924;12.204;2022-09-09T02:24:39;13.60;99.90
12452;DHT22;6291;48.924;12.204;2022-09-09T02:29:53;13.60;99.90
12452;DHT22;6291;48.924;12.204;2022-09-09T02:35:13;13.60;99.90
12452;DHT22;6291;48.924;12.204;2022-09-09T02:40:18;13.50;99.90
12452;DHT22;6291;48.924;12.204;2022-09-09T02:45:36;13.40;99.90
12452;DHT22;6291;48.924;12.204;2022-09-09T02:50:52;13.50;99.90
12452;DHT22;6291;48.924;12.204;2022-09-09T02:56:04;13.50;99.90
12452;DHT22;6291;48.924;12.204;2022-09-09T03:01:13;13.20;99.90
12452;DHT22;6291;48.924;12.204;2022-09-09T03:06:17;12.90;99.90
12452;DHT22;6291;48.924;12.204;2022-09-09T03:11:26;13.10;99.90
12452;DHT22;6291;48.924;12.204;2022-09-09T03:16:31;13.20;99.90
12452;DHT22;6291;48.924;12.204;2022-09-09T03:21:35;13.20;99.90
12452;DHT22;6291;48.924;12.204;2022-09-09T03:26:40;13.00;99.90
12452;DHT22;6291;48.924;12.204;2022-09-09T03:31:51;9.10;99.90
12452;DHT22;6291;48.924;12.204;2022-09-09T03:36:56;13.00;99.90
12452;DHT22;6291;48.924;12.204;2022-09-09T03:42:01;13.00;99.90
12452;DHT22;6291;48.924;12.204;2022-09-09T03:47:08;13.00;99.90
12452;DHT22;6291;48.924;12.204;2022-09-09T03:52:12;12.90;99.90
12452;DHT22;6291;48.924;12.204;2022-09-09T03:57:16;13.00;99.90
12452;DHT22;6291;48.924;12.204;2022-09-09T04:02:21;13.10;99.90
12452;DHT22;6291;48.924;12.204;2022-09-09T04:07:24;13.20;99.90
12452;DHT22;6291;48.924;12.204;2022-09-09T04:12:30;13.20;99.90
12452;DHT22;6291;48.924;12.204;2022-09-09T04:17:35;13.30;99.90
12452;DHT22;6291;48.924;12.204;2022-09-09T04:22:39;9.20;99.90
12452;DHT22;6291;48.924;12.204;2022-09-09T04:27:42;13.40;99.90
12452;DHT22;6291;48.924;12.204;2022-09-09T04:32:47;13.50;99.90
12452;DHT22;6291;48.924;12.204;2022-09-09T04:37:51;13.60;99.90
12452;DHT22;6291;48.924;12.204;2022-09-09T04:42:54;13.60;99.90
12452;DHT22;6291;48.924;12.204;2022-09-09T04:47:59;12.80;99.90
12452;DHT22;6291;48.924;12.204;2022-09-09T04:53:04;13.70;99.90
12452;DHT22;6291;48.924;12.204;2022-09-09T04:58:11;13.70;99.90
12452;DHT22;6291;48.924;12.204;2022-09-09T05:03:16;10.30;99.90
12452;DHT22;6291;48.924;12.204;2022-09-09T05:08:21;13.50;99.90
12452;DHT22;6291;48.924;12.204;2022-09-09T05:13:24;13.50;99.90
12452;DHT22;6291;48.924;12.204;2022-09-09T05:18:29;13.50;99.90
12452;DHT22;6291;48.924;12.204;2022-09-09T05:23:34;13.60;99.90
12452;DHT22;6291;48.924;12.204;2022-09-09T05:28:38;13.60;99.90
12452;DHT22;6291;48.924;12.204;2022-09-09T05:33:44;13.80;99.90
12452;DHT22;6291;48.924;12.204;2022-09-09T05:38:49;13.50;99.90
12452;DHT22;6291;48.924;12.204;2022-09-09T05:43:54;13.40;99.90
12452;DHT22;6291;48.924;12.204;2022-09-09T05:48:59;13.40;99.90
12452;DHT22;6291;48.924;12.204;2022-09-09T05:54:05;13.30;99.90
12452;DHT22;6291;48.924;12.204;2022-09-09T05:59:13;13.40;99.90
12452;DHT22;6291;48.924;12.204;2022-09-09T06:04:18;13.20;99.90
12452;DHT22;6291;48.924;12.204;2022-09-09T06:09:26;13.30;99.90
12452;DHT22;6291;48.924;12.204;2022-09-09T06:14:30;13.50;99.90
12452;DHT22;6291;48.924;12.204;2022-09-09T06:19:36;13.10;99.90
12452;DHT22;6291;48.924;12.204;2022-09-09T06:24:41;13.60;99.90
12452;DHT22;6291;48.924;12.204;2022-09-09T06:29:44;13.80;99.90
12452;DHT22;6291;48.924;12.204;2022-09-09T06:34:51;13.90;99.90
12452;DHT22;6291;48.924;12.204;2022-09-09T06:39:55;14.20;99.90
12452;DHT22;6291;48.924;12.204;2022-09-09T06:44:59;14.20;99.90
12452;DHT22;6291;48.924;12.204;2022-09-09T06:50:16;14.50;99.90
12452;DHT22;6291;48.924;12.204;2022-09-09T06:55:20;14.80;99.90
12452;DHT22;6291;48.924;12.204;2022-09-09T07:00:24;15.00;99.90
12452;DHT22;6291;48.924;12.204;2022-09-09T07:05:29;15.10;99.90
12452;DHT22;6291;48.924;12.204;2022-09-09T07:10:32;15.30;99.90
12452;DHT22;6291;48.924;12.204;2022-09-09T07:15:36;15.60;99.90
12452;DHT22;6291;48.924;12.204;2022-09-09T07:20:41;15.60;99.90
12452;DHT22;6291;48.924;12.204;2022-09-09T07:25:45;15.70;99.90
12452;DHT22;6291;48.924;12.204;2022-09-09T07:30:54;15.40;99.90
12452;DHT22;6291;48.924;12.204;2022-09-09T07:36:05;15.10;99.90
12452;DHT22;6291;48.924;12.204;2022-09-09T07:41:11;15.10;99.90
12452;DHT22;6291;48.924;12.204;2022-09-09T07:46:17;15.60;99.90
12452;DHT22;6291;48.924;12.204;2022-09-09T07:51:24;14.80;99.90
12452;DHT22;6291;48.924;12.204;2022-09-09T07:56:29;14.50;99.90
12452;DHT22;6291;48.924;12.204;2022-09-09T08:01:36;14.70;99.90
12452;DHT22;6291;48.924;12.204;2022-09-09T08:06:46;14.80;99.90
12452;DHT22;6291;48.924;12.204;2022-09-09T08:11:51;14.80;99.90
12452;DHT22;6291;48.924;12.204;2022-09-09T08:16:55;14.70;99.90
12452;DHT22;6291;48.924;12.204;2022-09-09T08:22:03;14.70;99.90
12452;DHT22;6291;48.924;12.204;2022-09-09T08:27:08;15.10;99.90
12452;DHT22;6291;48.924;12.204;2022-09-09T08:32:13;15.10;99.90
12452;DHT22;6291;48.924;12.204;2022-09-09T08:37:18;18.80;99.90
12452;DHT22;6291;48.924;12.204;2022-09-09T08:42:33;15.00;99.90
12452;DHT22;6291;48.924;12.204;2022-09-09T08:47:47;15.00;99.90
12452;DHT22;6291;48.924;12.204;2022-09-09T08:53:01;15.10;99.90
12452;DHT22;6291;48.924;12.204;2022-09-09T08:58:12;15.40;99.90
12452;DHT22;6291;48.924;12.204;2022-09-09T09:03:24;15.70;99.90
12452;DHT22;6291;48.924;12.204;2022-09-09T09:08:37;16.00;99.90
12452;DHT22;6291;48.924;12.204;2022-09-09T09:13:47;16.00;99.90
12452;DHT22;6291;48.924;12.204;2022-09-09T09:18:53;16.10;99.90
12452;DHT22;6291;48.924;12.204;2022-09-09T09:24:01;16.20;99.90
12452;DHT22;6291;48.924;12.204;2022-09-09T09:29:11;16.00;99.90
12452;DHT22;6291;48.924;12.204;2022-09-09T09:34:16;15.80;99.90
12452;DHT22;6291;48.924;12.204;2022-09-09T09:39:27;16.10;99.90
12452;DHT22;6291;48.924;12.204;2022-09-09T09:44:50;16.70;99.90
12452;DHT22;6291;48.924;12.204;2022-09-09T09:49:57;17.30;99.90
12452;DHT22;6291;48.924;12.204;2022-09-09T09:55:12;18.10;99.90
12452;DHT22;6291;48.924;12.204;2022-09-09T10:00:21;19.20;99.90
12452;DHT22;6291;48.924;12.204;2022-09-09T10:05:36;20.10;99.90
12452;DHT22;6291;48.924;12.204;2022-09-09T10:11:06;20.10;99.90
12452;DHT22;6291;48.924;12.204;2022-09-09T10:16:29;20.40;99.90
12452;DHT22;6291;48.924;12.204;2022-09-09T10:21:59;19.90;99.90
12452;DHT22;6291;48.924;12.204;2022-09-09T10:27:15;19.20;99.90
12452;DHT22;6291;48.924;12.204;2022-09-09T10:32:37;19.10;99.90
12452;DHT22;6291;48.924;12.204;2022-09-09T10:38:03;19.60;99.90
12452;DHT22;6291;48.924;12.204;2022-09-09T10:43:16;20.20;99.90
12452;DHT22;6291;48.924;12.204;2022-09-09T10:48:31;18.50;99.90
12452;DHT22;6291;48.924;12.204;2022-09-09T10:53:39;20.00;99.90
12452;DHT22;6291;48.924;12.204;2022-09-09T10:58:49;20.20;99.90
12452;DHT22;6291;48.924;12.204;2022-09-09T11:03:57;19.80;99.90
12452;DHT22;6291;48.924;12.204;2022-09-09T11:09:02;19.80;99.90
12452;DHT22;6291;48.924;12.204;2022-09-09T11:14:12;21.00;99.90
12452;DHT22;6291;48.924;12.204;2022-09-09T11:19:24;21.30;99.90
12452;DHT22;6291;48.924;12.204;2022-09-09T11:24:35;21.90;99.90
12452;DHT22;6291;48.924;12.204;2022-09-09T11:30:17;22.20;99.90
12452;DHT22;6291;48.924;12.204;2022-09-09T11:36:00;22.70;99.90
12452;DHT22;6291;48.924;12.204;2022-09-09T11:41:09;22.40;99.90
12452;DHT22;6291;48.924;12.204;2022-09-09T11:46:15;22.10;99.90
12452;DHT22;6291;48.924;12.204;2022-09-09T11:51:26;21.20;99.90
12452;DHT22;6291;48.924;12.204;2022-09-09T11:56:31;21.40;99.90
12452;DHT22;6291;48.924;12.204;2022-09-09T12:01:39;23.90;99.90
12452;DHT22;6291;48.924;12.204;2022-09-09T12:06:44;23.80;99.10
12452;DHT22;6291;48.924;12.204;2022-09-09T12:11:48;24.90;96.60
12452;DHT22;6291;48.924;12.204;2022-09-09T12:16:53;23.70;96.70
12452;DHT22;6291;48.924;12.204;2022-09-09T12:22:06;23.30;98.90
12452;DHT22;6291;48.924;12.204;2022-09-09T12:27:15;22.10;99.40
12452;DHT22;6291;48.924;12.204;2022-09-09T12:32:24;20.50;99.90
12452;DHT22;6291;48.924;12.204;2022-09-09T12:37:33;20.50;99.90
12452;DHT22;6291;48.924;12.204;2022-09-09T12:42:40;21.30;99.90
12452;DHT22;6291;48.924;12.204;2022-09-09T12:47:47;20.20;99.90
12452;DHT22;6291;48.924;12.204;2022-09-09T12:52:54;20.90;99.90
12452;DHT22;6291;48.924;12.204;2022-09-09T12:58:00;21.20;99.90
12452;DHT22;6291;48.924;12.204;2022-09-09T13:03:17;21.90;99.90
12452;DHT22;6291;48.924;12.204;2022-09-09T13:08:22;21.20;99.90
12452;DHT22;6291;48.924;12.204;2022-09-09T13:13:29;21.70;99.90
12452;DHT22;6291;48.924;12.204;2022-09-09T13:18:40;20.80;99.90
12452;DHT22;6291;48.924;12.204;2022-09-09T13:23:48;21.10;99.90
12452;DHT22;6291;48.924;12.204;2022-09-09T13:28:53;22.80;99.20
12452;DHT22;6291;48.924;12.204;2022-09-09T13:33:58;24.10;94.30
12452;DHT22;6291;48.924;12.204;2022-09-09T13:39:03;23.60;94.30
12452;DHT22;6291;48.924;12.204;2022-09-09T13:44:14;23.10;94.70
12452;DHT22;6291;48.924;12.204;2022-09-09T13:49:22;23.20;94.30
12452;DHT22;6291;48.924;12.204;2022-09-09T13:54:26;22.50;94.20
12452;DHT22;6291;48.924;12.204;2022-09-09T13:59:29;22.00;93.50
12452;DHT22;6291;48.924;12.204;2022-09-09T14:04:54;24.00;91.40
12452;DHT22;6291;48.924;12.204;2022-09-09T14:09:58;22.80;91.60
12452;DHT22;6291;48.924;12.204;2022-09-09T14:15:02;21.40;94.10
12452;DHT22;6291;48.924;12.204;2022-09-09T14:20:09;24.10;89.10
12452;DHT22;6291;48.924;12.204;2022-09-09T14:25:13;24.20;90.00
12452;DHT22;6291;48.924;12.204;2022-09-09T14:30:17;24.30;85.30
12452;DHT22;6291;48.924;12.204;2022-09-09T14:35:22;23.40;87.80
12452;DHT22;6291;48.924;12.204;2022-09-09T14:40:25;23.20;86.20
12452;DHT22;6291;48.924;12.204;2022-09-09T14:45:29;23.70;85.20
12452;DHT22;6291;48.924;12.204;2022-09-09T14:50:33;23.30;86.20
12452;DHT22;6291;48.924;12.204;2022-09-09T14:55:41;25.10;82.30
12452;DHT22;6291;48.924;12.204;2022-09-09T15:00:45;24.60;78.10
12452;DHT22;6291;48.924;12.204;2022-09-09T15:05:49;22.90;84.80
12452;DHT22;6291;48.924;12.204;2022-09-09T15:10:59;22.00;88.50
12452;DHT22;6291;48.924;12.204;2022-09-09T15:16:06;21.50;90.20
12452;DHT22;6291;48.924;12.204;2022-09-09T15:21:12;21.30;91.00
12452;DHT22;6291;48.924;12.204;2022-09-09T15:26:16;20.80;92.40
12452;DHT22;6291;48.924;12.204;2022-09-09T15:31:21;21.00;92.20
12452;DHT22;6291;48.924;12.204;2022-09-09T15:36:27;20.80;92.90
12452;DHT22;6291;48.924;12.204;2022-09-09T15:41:32;20.70;92.90
12452;DHT22;6291;48.924;12.204;2022-09-09T15:46:37;20.00;93.30
12452;DHT22;6291;48.924;12.204;2022-09-09T15:51:43;19.80;93.60
12452;DHT22;6291;48.924;12.204;2022-09-09T15:56:50;19.80;93.90
12452;DHT22;6291;48.924;12.204;2022-09-09T16:01:54;19.60;94.70
12452;DHT22;6291;48.924;12.204;2022-09-09T16:07:01;19.60;95.30
12452;DHT22;6291;48.924;12.204;2022-09-09T16:12:05;19.40;95.90
12452;DHT22;6291;48.924;12.204;2022-09-09T16:17:11;19.50;95.70
12452;DHT22;6291;48.924;12.204;2022-09-09T16:22:17;19.50;95.70
12452;DHT22;6291;48.924;12.204;2022-09-09T16:27:20;19.60;95.50
12452;DHT22;6291;48.924;12.204;2022-09-09T16:32:25;19.30;95.90
12452;DHT22;6291;48.924;12.204;2022-09-09T16:37:29;19.30;96.70
12452;DHT22;6291;48.924;12.204;2022-09-09T16:42:33;19.40;97.70
12452;DHT22;6291;48.924;12.204;2022-09-09T16:47:40;19.60;98.40
12452;DHT22;6291;48.924;12.204;2022-09-09T16:52:45;20.40;97.50
12452;DHT22;6291;48.924;12.204;2022-09-09T16:57:48;20.40;97.30
12452;DHT22;6291;48.924;12.204;2022-09-09T17:02:51;19.90;98.10
12452;DHT22;6291;48.924;12.204;2022-09-09T17:07:56;19.60;98.90
12452;DHT22;6291;48.924;12.204;2022-09-09T17:13:00;19.10;99.90
12452;DHT22;6291;48.924;12.204;2022-09-09T17:18:04;18.80;99.90
12452;DHT22;6291;48.924;12.204;2022-09-09T17:23:11;18.60;99.90
12452;DHT22;6291;48.924;12.204;2022-09-09T17:28:15;18.40;99.90
12452;DHT22;6291;48.924;12.204;2022-09-09T17:33:18;18.30;99.90
12452;DHT22;6291;48.924;12.204;2022-09-09T17:38:24;21.30;99.90
12452;DHT22;6291;48.924;12.204;2022-09-09T17:43:32;18.40;99.90
12452;DHT22;6291;48.924;12.204;2022-09-09T17:48:36;18.30;99.90
12452;DHT22;6291;48.924;12.204;2022-09-09T17:53:44;18.20;99.90
12452;DHT22;6291;48.924;12.204;2022-09-09T17:58:47;18.00;99.90
12452;DHT22;6291;48.924;12.204;2022-09-09T18:03:51;17.90;99.90
12452;DHT22;6291;48.924;12.204;2022-09-09T18:08:57;17.70;99.90
12452;DHT22;6291;48.924;12.204;2022-09-09T18:14:02;17.70;99.90
12452;DHT22;6291;48.924;12.204;2022-09-09T18:19:08;17.80;99.90
12452;DHT22;6291;48.924;12.204;2022-09-09T18:24:15;17.90;99.90
12452;DHT22;6291;48.924;12.204;2022-09-09T18:29:21;17.70;99.90
12452;DHT22;6291;48.924;12.204;2022-09-09T18:34:26;17.50;99.90
12452;DHT22;6291;48.924;12.204;2022-09-09T18:39:33;17.10;99.90
12452;DHT22;6291;48.924;12.204;2022-09-09T18:44:37;16.00;99.90
12452;DHT22;6291;48.924;12.204;2022-09-09T18:49:40;14.60;99.90
12452;DHT22;6291;48.924;12.204;2022-09-09T18:54:45;13.70;99.90
12452;DHT22;6291;48.924;12.204;2022-09-09T18:59:49;13.70;99.90
12452;DHT22;6291;48.924;12.204;2022-09-09T19:04:55;13.50;99.90
12452;DHT22;6291;48.924;12.204;2022-09-09T19:10:00;13.10;99.90
12452;DHT22;6291;48.924;12.204;2022-09-09T19:15:04;13.00;99.90
12452;DHT22;6291;48.924;12.204;2022-09-09T19:20:08;13.40;99.90
12452;DHT22;6291;48.924;12.204;2022-09-09T19:25:14;14.50;99.90
12452;DHT22;6291;48.924;12.204;2022-09-09T19:30:18;13.30;99.90
12452;DHT22;6291;48.924;12.204;2022-09-09T19:35:21;10.70;99.90
12452;DHT22;6291;48.924;12.204;2022-09-09T19:40:26;12.60;99.90
12452;DHT22;6291;48.924;12.204;2022-09-09T19:45:31;13.70;99.90
12452;DHT22;6291;48.924;12.204;2022-09-09T19:50:35;13.80;99.90
12452;DHT22;6291;48.924;12.204;2022-09-09T19:55:40;13.80;99.90
12452;DHT22;6291;48.924;12.204;2022-09-09T20:00:44;13.90;99.90
12452;DHT22;6291;48.924;12.204;2022-09-09T20:05:47;13.90;99.90
12452;DHT22;6291;48.924;12.204;2022-09-09T20:10:53;13.60;99.90
12452;DHT22;6291;48.924;12.204;2022-09-09T20:15:57;13.60;99.90
12452;DHT22;6291;48.924;12.204;2022-09-09T20:21:04;13.40;99.90
12452;DHT22;6291;48.924;12.204;2022-09-09T20:26:10;13.10;99.90
12452;DHT22;6291;48.924;12.204;2022-09-09T20:31:17;13.10;99.90
12452;DHT22;6291;48.924;12.204;2022-09-09T20:36:23;13.40;99.90
12452;DHT22;6291;48.924;12.204;2022-09-09T20:41:30;13.30;99.90
12452;DHT22;6291;48.924;12.204;2022-09-09T20:46:35;13.20;99.90
12452;DHT22;6291;48.924;12.204;2022-09-09T20:51:39;13.20;99.90
12452;DHT22;6291;48.924;12.204;2022-09-09T20:56:44;13.10;99.90
12452;DHT22;6291;48.924;12.204;2022-09-09T21:01:49;13.10;99.90
12452;DHT22;6291;48.924;12.204;2022-09-09T21:06:53;13.00;99.90
12452;DHT22;6291;48.924;12.204;2022-09-09T21:11:58;12.90;99.90
12452;DHT22;6291;48.924;12.204;2022-09-09T21:17:01;12.90;99.90
12452;DHT22;6291;48.924;12.204;2022-09-09T21:22:05;12.80;99.90
12452;DHT22;6291;48.924;12.204;2022-09-09T21:27:09;12.90;99.90
12452;DHT22;6291;48.924;12.204;2022-09-09T21:32:12;12.90;99.90
12452;DHT22;6291;48.924;12.204;2022-09-09T21:37:16;13.00;99.90
12452;DHT22;6291;48.924;12.204;2022-09-09T21:42:20;13.00;99.90
12452;DHT22;6291;48.924;12.204;2022-09-09T21:47:24;13.00;99.90
12452;DHT22;6291;48.924;12.204;2022-09-09T21:52:27;13.00;99.90
12452;DHT22;6291;48.924;12.204;2022-09-09T21:57:32;13.30;99.90
12452;DHT22;6291;48.924;12.204;2022-09-09T22:02:36;13.20;99.90
12452;DHT22;6291;48.924;12.204;2022-09-09T22:07:40;13.40;99.90
12452;DHT22;6291;48.924;12.204;2022-09-09T22:12:44;13.40;99.90
12452;DHT22;6291;48.924;12.204;2022-09-09T22:17:48;13.30;99.90
12452;DHT22;6291;48.924;12.204;2022-09-09T22:22:51;13.30;99.90
12452;DHT22;6291;48.924;12.204;2022-09-09T22:27:56;13.20;99.90
12452;DHT22;6291;48.924;12.204;2022-09-09T22:32:59;13.10;99.90
12452;DHT22;6291;48.924;12.204;2022-09-09T22:38:03;13.00;99.90
12452;DHT22;6291;48.924;12.204;2022-09-09T22:43:13;13.10;99.90
12452;DHT22;6291;48.924;12.204;2022-09-09T22:48:17;13.10;99.90
12452;DHT22;6291;48.924;12.204;2022-09-09T22:53:20;13.00;99.90
12452;DHT22;6291;48.924;12.204;2022-09-09T22:58:25;13.00;99.90
12452;DHT22;6291;48.924;12.204;2022-09-09T23:03:30;13.00;99.90
12452;DHT22;6291;48.924;12.204;2022-09-09T23:08:35;10.30;99.90
12452;DHT22;6291;48.924;12.204;2022-09-09T23:13:45;12.80;99.90
12452;DHT22;6291;48.924;12.204;2022-09-09T23:18:49;12.90;99.90
12452;DHT22;6291;48.924;12.204;2022-09-09T23:23:53;12.80;99.90
12452;DHT22;6291;48.924;12.204;2022-09-09T23:28:59;12.70;99.90
12452;DHT22;6291;48.924;12.204;2022-09-09T23:34:03;12.60;99.90
12452;DHT22;6291;48.924;12.204;2022-09-09T23:39:08;12.60;99.90
12452;DHT22;6291;48.924;12.204;2022-09-09T23:44:14;12.60;99.90
12452;DHT22;6291;48.924;12.204;2022-09-09T23:49:17;12.60;99.90
12452;DHT22;6291;48.924;12.204;2022-09-09T23:54:20;12.90;99.90
12452;DHT22;6291;48.924;12.204;2022-09-09T23:59:25;12.90;99.90
